createdAt,value
2023-04-07T00:00:40.879Z,1.08
2023-04-07T00:03:09.125Z,1.13
2023-04-07T00:05:37.193Z,1.10
2023-04-07T00:08:05.322Z,1.30
2023-04-07T00:10:33.433Z,1.00
2023-04-07T00:13:01.419Z,1.20
2023-04-07T00:15:29.512Z,1.20
2023-04-07T00:17:58.936Z,1.10
2023-04-07T00:20:26.975Z,0.90
2023-04-07T00:22:54.884Z,1.13
2023-04-07T00:25:22.824Z,1.00
2023-04-07T00:27:50.770Z,1.02
2023-04-07T00:30:18.887Z,1.15
2023-04-07T00:32:46.836Z,1.15
2023-04-07T00:35:16.332Z,0.88
2023-04-07T00:37:44.310Z,1.20
2023-04-07T00:40:13.012Z,1.40
2023-04-07T00:42:41.990Z,1.10
2023-04-07T00:45:11.606Z,1.20
2023-04-07T00:47:39.780Z,1.00
2023-04-07T00:50:08.961Z,0.97
2023-04-07T00:52:38.352Z,1.10
2023-04-07T00:55:07.107Z,0.93
2023-04-07T00:57:35.013Z,1.35
2023-04-07T01:00:03.149Z,1.30
2023-04-07T01:02:39.012Z,1.10
2023-04-07T01:05:14.507Z,0.90
2023-04-07T01:07:53.801Z,1.07
2023-04-07T01:10:28.951Z,1.20
2023-04-07T01:13:09.896Z,1.70
2023-04-07T01:15:40.998Z,1.60
2023-04-07T01:18:15.065Z,1.40
2023-04-07T01:20:45.026Z,1.67
2023-04-07T01:23:24.435Z,1.40
2023-04-07T01:26:06.443Z,1.40
2023-04-07T01:28:57.392Z,1.10
2023-04-07T01:31:27.842Z,1.60
2023-04-07T01:33:57.493Z,1.30
2023-04-07T01:36:28.426Z,1.30
2023-04-07T01:38:57.469Z,1.10
2023-04-07T01:41:27.440Z,1.70
2023-04-07T01:43:56.471Z,1.48
2023-04-07T01:46:27.316Z,1.23
2023-04-07T01:48:56.524Z,1.60
2023-04-07T01:51:27.529Z,1.40
2023-04-07T01:53:56.382Z,1.60
2023-04-07T01:56:24.557Z,1.70
2023-04-07T01:58:54.702Z,1.40
2023-04-07T02:01:26.095Z,1.60
2023-04-07T02:03:57.253Z,1.53
2023-04-07T02:06:31.868Z,1.30
2023-04-07T02:09:04.359Z,1.40
2023-04-07T02:11:34.010Z,1.70
2023-04-07T02:14:08.029Z,1.27
2023-04-07T02:16:52.396Z,1.50
2023-04-07T02:19:20.930Z,1.30
2023-04-07T02:21:52.678Z,1.43
2023-04-07T02:24:22.050Z,1.50
2023-04-07T02:26:50.170Z,1.37
2023-04-07T02:29:18.928Z,1.53
2023-04-07T02:31:46.980Z,1.33
2023-04-07T02:34:16.393Z,1.50
2023-04-07T02:36:44.366Z,1.47
2023-04-07T02:39:12.356Z,1.40
2023-04-07T02:41:40.832Z,1.10
2023-04-07T02:44:08.789Z,1.13
2023-04-07T02:46:37.411Z,1.27
2023-04-07T02:49:05.429Z,1.40
2023-04-07T02:51:34.726Z,1.30
2023-04-07T02:54:02.811Z,1.40
2023-04-07T02:56:31.176Z,1.20
2023-04-07T02:58:59.083Z,1.23
2023-04-07T03:01:28.055Z,1.10
2023-04-07T03:03:56.516Z,1.07
2023-04-07T03:06:27.131Z,1.13
2023-04-07T03:09:05.884Z,1.30
2023-04-07T03:11:34.775Z,1.40
2023-04-07T03:14:02.709Z,1.40
2023-04-07T03:16:33.388Z,1.20
2023-04-07T03:19:10.054Z,1.33
2023-04-07T03:21:42.961Z,1.50
2023-04-07T03:24:12.514Z,1.45
2023-04-07T03:26:40.668Z,1.27
2023-04-07T03:29:17.903Z,1.50
2023-04-07T03:31:46.603Z,1.47
2023-04-07T03:34:17.050Z,1.20
2023-04-07T03:36:44.952Z,1.33
2023-04-07T03:39:14.236Z,1.40
2023-04-07T03:41:42.148Z,1.00
2023-04-07T03:44:11.486Z,1.23
2023-04-07T03:46:39.988Z,1.00
2023-04-07T03:49:08.449Z,1.20
2023-04-07T03:51:36.391Z,1.20
2023-04-07T03:54:08.870Z,1.40
2023-04-07T03:56:42.486Z,1.30
2023-04-07T03:59:10.532Z,1.33
2023-04-07T04:01:47.049Z,0.97
2023-04-07T04:04:17.449Z,1.40
2023-04-07T04:06:46.173Z,1.30
2023-04-07T04:09:23.541Z,1.80
2023-04-07T04:11:52.857Z,1.30
2023-04-07T04:14:20.783Z,1.60
2023-04-07T04:16:55.028Z,1.30
2023-04-07T04:19:30.600Z,1.50
2023-04-07T04:22:01.905Z,1.17
2023-04-07T04:24:35.193Z,1.53
2023-04-07T04:27:06.322Z,1.50
2023-04-07T04:29:34.590Z,1.17
2023-04-07T04:32:04.392Z,1.67
2023-04-07T04:34:33.092Z,1.50
2023-04-07T04:37:01.176Z,1.70
2023-04-07T04:39:29.298Z,1.70
2023-04-07T04:41:58.603Z,1.03
2023-04-07T04:44:34.238Z,1.00
2023-04-07T04:47:04.453Z,1.17
2023-04-07T04:49:33.327Z,1.30
2023-04-07T04:52:04.434Z,1.50
2023-04-07T04:54:38.772Z,1.80
2023-04-07T04:57:06.923Z,1.73
2023-04-07T04:59:42.483Z,1.80
2023-04-07T05:02:10.556Z,1.57
2023-04-07T05:04:38.716Z,1.50
2023-04-07T05:07:29.172Z,1.40
2023-04-07T05:09:57.610Z,1.50
2023-04-07T05:12:26.045Z,1.63
2023-04-07T05:15:00.713Z,1.97
2023-04-07T05:17:28.666Z,1.60
2023-04-07T05:19:58.354Z,2.00
2023-04-07T05:22:36.197Z,1.83
2023-04-07T05:25:06.542Z,1.63
2023-04-07T05:27:35.267Z,1.63
2023-04-07T05:30:12.069Z,1.20
2023-04-07T05:32:40.529Z,1.53
2023-04-07T05:35:17.942Z,1.90
2023-04-07T05:37:52.537Z,2.07
2023-04-07T05:40:20.674Z,1.70
2023-04-07T05:42:48.764Z,1.70
2023-04-07T05:45:18.520Z,1.67
2023-04-07T05:47:50.681Z,1.90
2023-04-07T05:50:24.746Z,2.17
2023-04-07T05:52:53.542Z,2.20
2023-04-07T05:55:27.310Z,2.07
2023-04-07T05:57:56.081Z,1.90
2023-04-07T06:00:28.874Z,1.83
2023-04-07T06:03:06.162Z,2.00
2023-04-07T06:05:46.692Z,1.83
2023-04-07T06:08:15.379Z,1.60
2023-04-07T06:10:44.353Z,1.70
2023-04-07T06:13:13.029Z,1.73
2023-04-07T06:15:42.406Z,1.90
2023-04-07T06:18:11.160Z,1.50
2023-04-07T06:20:40.621Z,1.60
2023-04-07T06:23:08.610Z,1.50
2023-04-07T06:25:36.512Z,1.30
2023-04-07T06:28:04.484Z,1.57
2023-04-07T06:30:32.466Z,1.50
2023-04-07T06:33:02.300Z,1.48
2023-04-07T06:35:30.416Z,1.43
2023-04-07T06:37:58.366Z,1.80
2023-04-07T06:40:26.271Z,1.27
2023-04-07T06:42:54.643Z,1.57
2023-04-07T06:45:37.383Z,1.50
2023-04-07T06:48:07.836Z,2.50
2023-04-07T06:50:36.010Z,2.53
2023-04-07T06:53:03.970Z,3.00
2023-04-07T06:55:31.918Z,2.10
2023-04-07T06:57:59.800Z,3.03
2023-04-07T07:00:30.229Z,3.30
2023-04-07T07:02:58.304Z,2.70
2023-04-07T07:05:27.634Z,2.53
2023-04-07T07:07:55.824Z,2.07
2023-04-07T07:10:23.800Z,2.23
2023-04-07T07:12:52.040Z,1.93
2023-04-07T07:15:20.073Z,1.97
2023-04-07T07:17:47.974Z,2.33
2023-04-07T07:20:16.081Z,1.90
2023-04-07T07:22:45.518Z,2.10
2023-04-07T07:25:13.452Z,2.27
2023-04-07T07:27:41.379Z,2.30
2023-04-07T07:30:10.180Z,2.20
2023-04-07T07:32:38.129Z,2.17
2023-04-07T07:35:06.736Z,2.50
2023-04-07T07:37:34.699Z,2.30
2023-04-07T07:40:04.247Z,2.30
2023-04-07T07:42:32.742Z,2.30
2023-04-07T07:45:01.080Z,2.57
2023-04-07T07:47:29.146Z,2.60
2023-04-07T07:49:57.365Z,2.43
2023-04-07T07:52:25.698Z,2.60
2023-04-07T07:54:53.619Z,2.70
2023-04-07T07:57:22.896Z,2.70
2023-04-07T07:59:50.776Z,2.13
2023-04-07T08:02:18.786Z,1.70
2023-04-07T08:04:46.824Z,1.47
2023-04-07T08:07:14.722Z,2.30
2023-04-07T08:09:42.778Z,2.25
2023-04-07T08:12:10.709Z,2.20
2023-04-07T08:14:40.000Z,2.07
2023-04-07T08:17:07.945Z,2.10
2023-04-07T08:19:35.850Z,2.00
2023-04-07T08:22:03.772Z,1.50
2023-04-07T08:24:31.701Z,1.97
2023-04-07T08:26:59.678Z,1.40
2023-04-07T08:29:27.581Z,2.10
2023-04-07T08:31:56.932Z,1.50
2023-04-07T08:34:24.949Z,1.60
2023-04-07T08:36:52.887Z,1.73
2023-04-07T08:39:20.845Z,1.97
2023-04-07T08:41:50.049Z,1.80
2023-04-07T08:44:19.021Z,1.70
2023-04-07T08:46:49.256Z,1.60
2023-04-07T08:49:19.355Z,1.60
2023-04-07T08:51:48.515Z,1.60
2023-04-07T08:54:19.108Z,1.23
2023-04-07T08:56:47.324Z,1.33
2023-04-07T08:59:18.580Z,1.35
2023-04-07T09:04:15.755Z,1.80
2023-04-07T09:06:45.052Z,1.60
2023-04-07T09:09:13.947Z,1.50
2023-04-07T09:11:43.289Z,1.75
2023-04-07T09:14:11.379Z,1.60
2023-04-07T09:16:39.581Z,1.48
2023-04-07T09:19:07.825Z,1.50
2023-04-07T09:21:53.550Z,1.55
2023-04-07T09:24:26.399Z,1.80
2023-04-07T09:27:14.577Z,2.42
2023-04-07T09:29:45.506Z,1.92
2023-04-07T09:32:14.343Z,1.85
2023-04-07T09:34:42.679Z,2.22
2023-04-07T09:37:23.515Z,1.77
2023-04-07T09:39:53.912Z,2.20
2023-04-07T09:42:22.445Z,1.52
2023-04-07T09:44:50.615Z,1.65
2023-04-07T09:47:18.842Z,2.10
2023-04-07T09:49:52.465Z,2.20
2023-04-07T09:52:44.044Z,1.90
2023-04-07T09:55:12.207Z,2.00
2023-04-07T09:57:42.003Z,1.65
2023-04-07T10:00:12.544Z,2.03
2023-04-07T10:02:44.617Z,1.67
2023-04-07T10:05:12.946Z,2.25
2023-04-07T10:07:42.901Z,1.73
2023-04-07T10:10:11.942Z,1.65
2023-04-07T10:12:41.568Z,1.90
2023-04-07T10:15:12.955Z,1.60
2023-04-07T10:17:42.596Z,1.52
2023-04-07T10:20:11.876Z,1.83
2023-04-07T10:22:42.736Z,1.88
2023-04-07T10:25:15.787Z,2.08
2023-04-07T10:27:51.269Z,2.45
2023-04-07T10:30:25.766Z,2.00
2023-04-07T10:32:55.458Z,2.15
2023-04-07T10:35:24.024Z,1.90
2023-04-07T10:38:11.686Z,2.20
2023-04-07T10:40:42.480Z,1.90
2023-04-07T10:43:11.555Z,2.30
2023-04-07T10:45:56.594Z,2.20
2023-04-07T10:48:24.767Z,2.15
2023-04-07T10:51:15.543Z,1.70
2023-04-07T10:54:23.554Z,1.98
2023-04-07T10:57:13.399Z,2.00
2023-04-07T10:59:47.159Z,2.20
2023-04-07T11:02:35.048Z,2.30
2023-04-07T11:05:04.043Z,2.40
2023-04-07T11:07:57.750Z,2.67
2023-04-07T11:10:26.267Z,2.80
2023-04-07T11:13:06.858Z,2.30
2023-04-07T11:15:38.487Z,1.42
2023-04-07T11:18:10.220Z,1.40
2023-04-07T11:20:53.711Z,1.08
2023-04-07T11:23:25.317Z,1.20
2023-04-07T11:25:54.493Z,1.17
2023-04-07T11:28:23.822Z,1.45
2023-04-07T11:30:53.994Z,1.40
2023-04-07T11:33:23.752Z,1.40
2023-04-07T11:35:57.375Z,0.70
2023-04-07T11:38:27.306Z,0.80
2023-04-07T11:40:56.417Z,0.90
2023-04-07T11:43:27.491Z,1.20
2023-04-07T11:46:09.083Z,0.77
2023-04-07T11:48:38.031Z,1.00
2023-04-07T11:51:07.249Z,0.97
2023-04-07T11:53:38.236Z,0.93
2023-04-07T11:56:09.683Z,1.33
2023-04-07T11:58:39.758Z,1.20
2023-04-07T12:01:09.009Z,1.30
2023-04-07T12:03:39.077Z,1.17
2023-04-07T12:06:07.535Z,0.80
2023-04-07T12:08:40.254Z,1.30
2023-04-07T12:11:09.305Z,1.23
2023-04-07T12:13:38.915Z,1.50
2023-04-07T12:16:07.268Z,1.30
2023-04-07T12:18:35.179Z,1.35
2023-04-07T12:21:03.150Z,1.08
2023-04-07T12:23:31.101Z,1.00
2023-04-07T12:25:59.075Z,0.87
2023-04-07T12:28:27.660Z,1.10
2023-04-07T12:30:56.994Z,1.02
2023-04-07T12:33:24.919Z,1.42
2023-04-07T12:35:52.984Z,1.00
2023-04-07T12:38:20.985Z,1.05
2023-04-07T12:40:48.904Z,1.20
2023-04-07T12:43:16.964Z,1.90
2023-04-07T12:45:44.953Z,2.00
2023-04-07T12:48:14.296Z,1.83
2023-04-07T12:50:42.242Z,9.57
2023-04-07T12:53:10.166Z,2.80
2023-04-07T12:55:38.050Z,1.63
2023-04-07T12:58:05.990Z,1.40
2023-04-07T13:00:33.900Z,1.25
2023-04-07T13:03:01.894Z,1.42
2023-04-07T13:05:31.452Z,1.33
2023-04-07T13:07:59.744Z,1.60
2023-04-07T13:10:27.780Z,1.25
2023-04-07T13:12:55.700Z,1.20
2023-04-07T13:15:23.605Z,1.15
2023-04-07T13:17:52.205Z,1.02
2023-04-07T13:20:21.004Z,1.55
2023-04-07T13:23:02.923Z,1.60
2023-04-07T13:25:35.328Z,1.60
2023-04-07T13:28:03.466Z,0.90
2023-04-07T13:30:31.413Z,1.85
2023-04-07T13:32:59.368Z,1.73
2023-04-07T13:35:27.496Z,1.67
2023-04-07T13:37:56.773Z,1.48
2023-04-07T13:40:24.801Z,1.20
2023-04-07T13:42:52.695Z,1.23
2023-04-07T13:45:20.688Z,1.13
2023-04-07T13:47:48.601Z,1.48
2023-04-07T13:50:16.958Z,1.17
2023-04-07T13:52:44.921Z,1.20
2023-04-07T13:55:16.006Z,1.20
2023-04-07T13:57:43.920Z,1.00
2023-04-07T14:00:12.972Z,0.75
2023-04-07T14:02:41.144Z,0.90
2023-04-07T14:05:09.444Z,0.50
2023-04-07T14:07:37.358Z,0.98
2023-04-07T14:10:06.899Z,0.80
2023-04-07T14:12:37.519Z,0.93
2023-04-07T14:15:06.296Z,0.80
2023-04-07T14:17:34.190Z,0.80
2023-04-07T14:20:02.237Z,0.90
2023-04-07T14:22:30.149Z,1.00
2023-04-07T14:24:58.042Z,1.10
2023-04-07T14:27:26.021Z,0.53
2023-04-07T14:29:57.876Z,0.43
2023-04-07T14:32:26.410Z,0.52
2023-04-07T14:34:54.336Z,0.60
2023-04-07T14:37:26.214Z,0.60
2023-04-07T14:40:01.971Z,0.50
2023-04-07T14:42:30.819Z,0.57
2023-04-07T14:45:01.733Z,0.70
2023-04-07T14:47:30.032Z,0.60
2023-04-07T14:49:58.014Z,0.50
2023-04-07T14:52:26.011Z,0.60
2023-04-07T14:54:54.054Z,0.50
2023-04-07T14:57:22.395Z,0.60
2023-04-07T14:59:50.366Z,0.65
2023-04-07T15:02:19.690Z,0.77
2023-04-07T15:04:47.772Z,0.95
2023-04-07T15:07:15.714Z,1.00
2023-04-07T15:09:43.673Z,0.82
2023-04-07T15:12:11.573Z,0.85
2023-04-07T15:14:40.141Z,0.80
2023-04-07T15:17:08.057Z,1.08
2023-04-07T15:19:37.336Z,0.57
2023-04-07T15:22:05.340Z,0.50
2023-04-07T15:24:33.208Z,0.73
2023-04-07T15:27:01.151Z,0.90
2023-04-07T15:29:29.076Z,0.60
2023-04-07T15:31:56.999Z,0.57
2023-04-07T15:34:24.982Z,0.50
2023-04-07T15:36:54.238Z,0.55
2023-04-07T15:39:22.179Z,0.50
2023-04-07T15:41:50.177Z,0.70
2023-04-07T15:44:19.738Z,0.40
2023-04-07T15:46:47.801Z,0.80
2023-04-07T15:49:23.711Z,0.80
2023-04-07T15:51:56.112Z,0.90
2023-04-07T15:54:24.176Z,0.90
2023-04-07T15:56:52.786Z,0.80
2023-04-07T15:59:20.695Z,0.90
2023-04-07T16:01:49.126Z,1.50
2023-04-07T16:04:17.143Z,1.13
2023-04-07T16:06:45.140Z,1.67
2023-04-07T16:09:14.428Z,0.63
2023-04-07T16:11:42.317Z,0.60
2023-04-07T16:14:10.243Z,0.77
2023-04-07T16:16:40.880Z,0.80
2023-04-07T16:19:08.909Z,0.70
2023-04-07T16:21:37.050Z,0.90
2023-04-07T16:24:05.227Z,0.70
2023-04-07T16:26:35.315Z,0.70
2023-04-07T16:29:03.397Z,0.80
2023-04-07T16:31:31.306Z,0.65
2023-04-07T16:33:59.232Z,0.80
2023-04-07T16:36:27.480Z,1.05
2023-04-07T16:38:55.507Z,0.98
2023-04-07T16:41:23.388Z,0.75
2023-04-07T16:43:52.697Z,1.00
2023-04-07T16:46:20.789Z,0.82
2023-04-07T16:48:48.791Z,0.73
2023-04-07T16:51:18.041Z,0.98
2023-04-07T16:53:46.243Z,0.88
2023-04-07T16:56:17.823Z,1.10
2023-04-07T16:58:45.858Z,0.95
2023-04-07T17:01:15.449Z,1.00
2023-04-07T17:03:43.566Z,1.08
2023-04-07T17:06:11.531Z,0.85
2023-04-07T17:08:40.064Z,0.98
2023-04-07T17:11:08.522Z,0.80
2023-04-07T17:13:37.637Z,0.90
2023-04-07T17:16:06.111Z,0.90
2023-04-07T17:18:35.444Z,1.00
2023-04-07T17:21:03.375Z,1.10
2023-04-07T17:23:31.441Z,1.02
2023-04-07T17:25:59.382Z,0.90
2023-04-07T17:28:27.575Z,0.80
2023-04-07T17:30:55.546Z,1.00
2023-04-07T17:33:23.451Z,0.80
2023-04-07T17:35:52.781Z,0.88
2023-04-07T17:38:20.922Z,1.00
2023-04-07T17:40:48.980Z,0.82
2023-04-07T17:43:16.855Z,1.10
2023-04-07T17:45:44.760Z,1.00
2023-04-07T17:48:12.754Z,0.80
2023-04-07T17:50:40.907Z,1.00
2023-04-07T17:53:10.261Z,0.80
2023-04-07T17:55:38.339Z,0.82
2023-04-07T17:58:06.570Z,0.85
2023-04-07T18:00:34.978Z,1.00
2023-04-07T18:03:03.971Z,0.88
2023-04-07T18:05:32.123Z,0.98
2023-04-07T18:08:00.182Z,0.98
2023-04-07T18:10:30.783Z,1.10
2023-04-07T18:12:58.711Z,1.73
2023-04-07T18:15:27.764Z,2.50
2023-04-07T18:17:56.031Z,3.00
2023-04-07T18:20:24.101Z,3.50
2023-04-07T18:22:52.730Z,2.53
2023-04-07T18:25:20.794Z,2.27
2023-04-07T18:27:50.079Z,3.20
2023-04-07T18:30:18.004Z,3.03
2023-04-07T18:32:46.433Z,3.10
2023-04-07T18:35:14.666Z,2.03
2023-04-07T18:37:44.106Z,2.70
2023-04-07T18:40:13.114Z,2.80
2023-04-07T18:42:41.145Z,3.27
2023-04-07T18:45:11.672Z,2.83
2023-04-07T18:47:39.631Z,3.50
2023-04-07T18:50:08.799Z,3.37
2023-04-07T18:52:36.711Z,2.50
2023-04-07T18:55:05.311Z,2.37
2023-04-07T18:57:33.216Z,2.85
2023-04-07T19:00:01.168Z,2.10
2023-04-07T19:02:31.032Z,1.90
2023-04-07T19:04:59.089Z,1.70
2023-04-07T19:07:27.002Z,1.85
2023-04-07T19:09:55.041Z,1.20
2023-04-07T19:12:23.292Z,1.20
2023-04-07T19:14:51.246Z,1.27
2023-04-07T19:17:19.283Z,1.00
2023-04-07T19:19:48.762Z,1.00
2023-04-07T19:22:16.701Z,1.10
2023-04-07T19:24:44.642Z,1.93
2023-04-07T19:27:14.630Z,3.40
2023-04-07T19:29:42.894Z,2.57
2023-04-07T19:32:10.830Z,3.30
2023-04-07T19:34:38.746Z,3.33
2023-04-07T19:37:08.107Z,2.73
2023-04-07T19:39:36.065Z,2.40
2023-04-07T19:42:03.993Z,1.40
2023-04-07T19:44:31.930Z,1.37
2023-04-07T19:46:59.826Z,1.70
2023-04-07T19:49:27.732Z,2.33
2023-04-07T19:51:55.703Z,1.93
2023-04-07T19:54:25.028Z,1.77
2023-04-07T19:56:52.986Z,1.80
2023-04-07T19:59:20.934Z,2.10
2023-04-07T20:01:49.033Z,2.33
2023-04-07T20:04:17.184Z,2.23
2023-04-07T20:06:45.138Z,1.80
2023-04-07T20:09:13.065Z,1.70
2023-04-07T20:11:42.410Z,1.57
2023-04-07T20:14:10.353Z,1.90
2023-04-07T20:16:38.487Z,1.50
2023-04-07T20:19:06.476Z,1.70
2023-04-07T20:21:34.394Z,1.60
2023-04-07T20:24:02.666Z,1.57
2023-04-07T20:26:30.682Z,1.53
2023-04-07T20:29:00.062Z,1.80
2023-04-07T20:31:28.177Z,1.60
2023-04-07T20:33:56.136Z,1.83
2023-04-07T20:36:24.048Z,2.27
2023-04-07T20:38:52.052Z,1.90
2023-04-07T20:41:19.933Z,1.87
2023-04-07T20:43:48.029Z,2.30
2023-04-07T20:46:17.325Z,2.43
2023-04-07T20:48:45.286Z,2.30
2023-04-07T20:51:13.621Z,2.67
2023-04-07T20:53:41.682Z,3.57
2023-04-07T20:56:09.619Z,4.73
2023-04-07T20:58:37.585Z,5.37
2023-04-07T21:01:05.544Z,3.73
2023-04-07T21:03:35.960Z,2.83
2023-04-07T21:06:04.840Z,2.20
2023-04-07T21:08:32.762Z,1.80
2023-04-07T21:11:00.760Z,2.10
2023-04-07T21:13:29.365Z,2.30
2023-04-07T21:15:59.301Z,2.50
2023-04-07T21:18:27.508Z,2.77
2023-04-07T21:21:02.013Z,2.87
2023-04-07T21:23:31.786Z,2.60
2023-04-07T21:26:03.461Z,2.53
2023-04-07T21:28:31.486Z,2.30
2023-04-07T21:30:59.461Z,2.20
2023-04-07T21:33:27.406Z,2.57
2023-04-07T21:35:55.489Z,2.77
2023-04-07T21:38:24.893Z,2.43
2023-04-07T21:40:52.805Z,1.80
2023-04-07T21:43:22.150Z,1.87
2023-04-07T21:45:50.049Z,1.77
2023-04-07T21:48:20.896Z,1.70
2023-04-07T21:50:48.900Z,1.83
2023-04-07T21:53:16.799Z,2.07
2023-04-07T21:55:46.142Z,2.70
2023-04-07T21:58:14.039Z,2.30
2023-04-07T22:00:41.984Z,1.57
2023-04-07T22:03:10.177Z,1.50
2023-04-07T22:05:39.237Z,1.50
2023-04-07T22:08:07.641Z,1.40
2023-04-07T22:10:35.539Z,1.60
2023-04-07T22:13:04.819Z,2.20
2023-04-07T22:15:32.776Z,2.00
2023-04-07T22:18:00.704Z,1.70
2023-04-07T22:20:28.688Z,1.80
2023-04-07T22:22:57.840Z,1.90
2023-04-07T22:25:26.512Z,1.80
2023-04-07T22:27:54.435Z,1.60
2023-04-07T22:30:24.631Z,1.30
2023-04-07T22:32:52.851Z,1.67
2023-04-07T22:35:20.858Z,1.50
2023-04-07T22:37:48.774Z,1.97
2023-04-07T22:40:16.742Z,1.83
2023-04-07T22:42:44.676Z,1.87
2023-04-07T22:45:12.591Z,2.10
2023-04-07T22:47:42.034Z,1.97
2023-04-07T22:50:11.741Z,1.90
2023-04-07T22:52:39.724Z,2.20
2023-04-07T22:55:09.014Z,1.80
2023-04-07T22:57:36.951Z,2.10
2023-04-07T23:00:05.288Z,2.03
2023-04-07T23:02:33.559Z,1.50
2023-04-07T23:05:03.253Z,1.60
2023-04-07T23:07:31.181Z,1.57
2023-04-07T23:09:59.129Z,1.90
2023-04-07T23:12:27.012Z,1.50
2023-04-07T23:14:55.098Z,1.70
2023-04-07T23:17:23.046Z,2.07
2023-04-07T23:19:51.131Z,2.00
2023-04-07T23:22:20.441Z,2.03
2023-04-07T23:24:48.362Z,2.07
2023-04-07T23:27:16.248Z,1.77
2023-04-07T23:29:44.152Z,2.07
2023-04-07T23:32:12.573Z,2.00
2023-04-07T23:34:41.920Z,1.90
2023-04-07T23:37:09.864Z,1.40
2023-04-07T23:39:39.250Z,1.80
2023-04-07T23:42:07.160Z,1.90
2023-04-07T23:44:35.049Z,1.60
2023-04-07T23:47:03.007Z,1.20
2023-04-07T23:49:31.425Z,1.47
2023-04-07T23:51:59.315Z,1.40
2023-04-07T23:54:27.201Z,1.30
2023-04-07T23:56:57.168Z,1.20
2023-04-07T23:59:25.483Z,1.30
